Airfield :
LOGIN :

Register | Disclaimer

   EN    FR    IT 

 










Legend :    VFR   Marginal VFR   IFR   Intensive IFR   Very Intensive IFR
Visi :
Ceiling :
>= 8 km
>= 3000ft
5 to 8 km
1000 to 3000 ft
1500m to 5 km
500 to 1000 ft
800 to 1500m
200 to 500 ft
< 800m
< 200 ft
Symbols :   Thunderstorms  Fog  Heavy snow  Heavy precipitations  Wind > 20 kt
SIGMETs :     Misc.  Thunderstorms  Icing  Turbulence  Mountain Waves  Volcanic Ashes






- Airport Elevation : 348 ft
- IATA code : LDV


LFRJ - Landivisiau

CURRENT METAR :
  • 232330Z AUTO 32005KT 6000 BKN003 BKN007 BKN013 11/11 Q1006

EXPIRED METARs :
  • 232300Z AUTO 33006KT 7000 BKN003 BKN011 OVC016 12/11 Q1006
  • 232230Z AUTO 32007KT 4200 BR OVC003 12/11 Q1006
  • 232200Z AUTO 32007KT 3900 -DZ BR OVC003 12/12 Q1007
  • 232130Z AUTO 32006KT 290V350 5000 -RADZ BR OVC006 12/11 Q1007
  • 232100Z AUTO 32004KT 9999 BKN007 OVC013 12/12 Q1007

TAF TAF LFRJ
Valid from the 23 at 18:00 until the 24 at 03:00 UTC


231700Z 2318/2403 34005KT 9999 OVC013
TEMPO 2318/2321 4000 RADZ BKN006
TEMPO 2400/2402 BKN016



MET'MAP, your aeronautical weather chart ! - Copyright ORBIFLY December 2007 - Disclaimer

ORBIFLY MET'MAP TEAM :

Programming & Development : Alexandra Zaïnal
Concept & Development : Baudouin d'Aumeries
Co-Development & Prog : Marc-Olivier Méhu
Technical & hardware support : Manuel Goepfert

Contact : metmap@orbifly.com




SOURCES & CREDITS :

   NOAA